sensor_id;sensor_type;location;lat;lon;timestamp;P1;durP1;ratioP1;P2;durP2;ratioP2
22172;SDS011;11252;50.596;17.648;2024-01-30T00:00:54;92.53;;;47.23;;
22172;SDS011;11252;50.596;17.648;2024-01-30T00:03:21;99.77;;;50.07;;
22172;SDS011;11252;50.596;17.648;2024-01-30T00:05:48;98.00;;;51.13;;
22172;SDS011;11252;50.596;17.648;2024-01-30T00:08:15;91.83;;;47.07;;
22172;SDS011;11252;50.596;17.648;2024-01-30T00:10:43;98.70;;;48.67;;
22172;SDS011;11252;50.596;17.648;2024-01-30T00:13:10;101.37;;;49.90;;
22172;SDS011;11252;50.596;17.648;2024-01-30T00:15:37;90.23;;;44.47;;
22172;SDS011;11252;50.596;17.648;2024-01-30T00:18:05;57.17;;;27.83;;
22172;SDS011;11252;50.596;17.648;2024-01-30T00:20:33;62.50;;;31.73;;
22172;SDS011;11252;50.596;17.648;2024-01-30T00:23:00;59.67;;;31.87;;
22172;SDS011;11252;50.596;17.648;2024-01-30T00:25:27;62.17;;;31.53;;
22172;SDS011;11252;50.596;17.648;2024-01-30T00:27:54;73.90;;;34.27;;
22172;SDS011;11252;50.596;17.648;2024-01-30T00:30:22;69.47;;;33.50;;
22172;SDS011;11252;50.596;17.648;2024-01-30T00:32:49;77.30;;;38.60;;
22172;SDS011;11252;50.596;17.648;2024-01-30T00:35:17;141.40;;;62.90;;
22172;SDS011;11252;50.596;17.648;2024-01-30T00:37:44;122.90;;;55.93;;
22172;SDS011;11252;50.596;17.648;2024-01-30T00:40:11;114.20;;;55.07;;
22172;SDS011;11252;50.596;17.648;2024-01-30T00:42:42;70.20;;;36.07;;
22172;SDS011;11252;50.596;17.648;2024-01-30T00:45:15;99.07;;;47.40;;
22172;SDS011;11252;50.596;17.648;2024-01-30T00:47:43;101.97;;;50.27;;
22172;SDS011;11252;50.596;17.648;2024-01-30T00:50:10;108.67;;;52.10;;
22172;SDS011;11252;50.596;17.648;2024-01-30T00:52:38;111.67;;;57.43;;
22172;SDS011;11252;50.596;17.648;2024-01-30T00:55:06;117.27;;;56.53;;
22172;SDS011;11252;50.596;17.648;2024-01-30T00:57:33;130.50;;;65.57;;
22172;SDS011;11252;50.596;17.648;2024-01-30T01:00:03;164.33;;;80.40;;
22172;SDS011;11252;50.596;17.648;2024-01-30T01:02:34;151.20;;;75.20;;
22172;SDS011;11252;50.596;17.648;2024-01-30T01:05:02;136.87;;;66.40;;
22172;SDS011;11252;50.596;17.648;2024-01-30T01:07:30;141.90;;;72.63;;
22172;SDS011;11252;50.596;17.648;2024-01-30T01:09:57;159.80;;;80.53;;
22172;SDS011;11252;50.596;17.648;2024-01-30T01:12:27;153.80;;;78.13;;
22172;SDS011;11252;50.596;17.648;2024-01-30T01:14:54;160.20;;;76.47;;
22172;SDS011;11252;50.596;17.648;2024-01-30T01:17:22;161.97;;;77.20;;
22172;SDS011;11252;50.596;17.648;2024-01-30T01:19:48;154.20;;;73.10;;
22172;SDS011;11252;50.596;17.648;2024-01-30T01:22:16;132.83;;;64.93;;
22172;SDS011;11252;50.596;17.648;2024-01-30T01:24:43;112.90;;;53.67;;
22172;SDS011;11252;50.596;17.648;2024-01-30T01:27:10;112.37;;;55.27;;
22172;SDS011;11252;50.596;17.648;2024-01-30T01:29:37;107.03;;;52.00;;
22172;SDS011;11252;50.596;17.648;2024-01-30T01:32:05;113.87;;;56.03;;
22172;SDS011;11252;50.596;17.648;2024-01-30T01:34:32;109.10;;;54.20;;
22172;SDS011;11252;50.596;17.648;2024-01-30T01:36:59;104.20;;;50.70;;
22172;SDS011;11252;50.596;17.648;2024-01-30T01:39:26;106.87;;;52.63;;
22172;SDS011;11252;50.596;17.648;2024-01-30T01:41:53;108.43;;;54.27;;
22172;SDS011;11252;50.596;17.648;2024-01-30T01:44:20;99.67;;;48.83;;
22172;SDS011;11252;50.596;17.648;2024-01-30T01:46:48;103.63;;;49.73;;
22172;SDS011;11252;50.596;17.648;2024-01-30T01:49:15;94.87;;;48.53;;
22172;SDS011;11252;50.596;17.648;2024-01-30T01:51:42;88.60;;;46.03;;
22172;SDS011;11252;50.596;17.648;2024-01-30T01:54:11;94.00;;;47.40;;
22172;SDS011;11252;50.596;17.648;2024-01-30T01:56:38;91.70;;;46.40;;
22172;SDS011;11252;50.596;17.648;2024-01-30T01:59:06;92.87;;;47.10;;
22172;SDS011;11252;50.596;17.648;2024-01-30T02:01:37;85.77;;;44.70;;
22172;SDS011;11252;50.596;17.648;2024-01-30T02:04:07;92.23;;;47.33;;
22172;SDS011;11252;50.596;17.648;2024-01-30T02:06:34;91.83;;;45.13;;
22172;SDS011;11252;50.596;17.648;2024-01-30T02:09:02;90.33;;;44.40;;
22172;SDS011;11252;50.596;17.648;2024-01-30T02:11:31;88.97;;;43.17;;
22172;SDS011;11252;50.596;17.648;2024-01-30T02:14:02;88.80;;;44.60;;
22172;SDS011;11252;50.596;17.648;2024-01-30T02:16:33;89.97;;;45.27;;
22172;SDS011;11252;50.596;17.648;2024-01-30T02:19:00;85.13;;;43.53;;
22172;SDS011;11252;50.596;17.648;2024-01-30T02:21:27;66.37;;;34.30;;
22172;SDS011;11252;50.596;17.648;2024-01-30T02:23:55;62.70;;;31.80;;
22172;SDS011;11252;50.596;17.648;2024-01-30T02:26:23;55.80;;;27.63;;
22172;SDS011;11252;50.596;17.648;2024-01-30T02:28:50;58.53;;;30.17;;
22172;SDS011;11252;50.596;17.648;2024-01-30T02:31:17;61.33;;;30.27;;
22172;SDS011;11252;50.596;17.648;2024-01-30T02:33:44;59.37;;;28.97;;
22172;SDS011;11252;50.596;17.648;2024-01-30T02:36:11;113.73;;;69.90;;
22172;SDS011;11252;50.596;17.648;2024-01-30T02:38:38;112.43;;;69.33;;
22172;SDS011;11252;50.596;17.648;2024-01-30T02:41:05;92.33;;;50.07;;
22172;SDS011;11252;50.596;17.648;2024-01-30T02:43:32;98.50;;;51.47;;
22172;SDS011;11252;50.596;17.648;2024-01-30T02:45:59;91.67;;;50.63;;
22172;SDS011;11252;50.596;17.648;2024-01-30T02:48:27;111.70;;;57.70;;
22172;SDS011;11252;50.596;17.648;2024-01-30T02:50:54;84.00;;;47.30;;
22172;SDS011;11252;50.596;17.648;2024-01-30T02:53:21;77.83;;;43.30;;
22172;SDS011;11252;50.596;17.648;2024-01-30T02:55:48;77.40;;;40.87;;
22172;SDS011;11252;50.596;17.648;2024-01-30T02:58:15;76.73;;;40.27;;
22172;SDS011;11252;50.596;17.648;2024-01-30T03:00:43;75.30;;;39.37;;
22172;SDS011;11252;50.596;17.648;2024-01-30T03:03:10;72.67;;;39.30;;
22172;SDS011;11252;50.596;17.648;2024-01-30T03:05:37;66.90;;;36.97;;
22172;SDS011;11252;50.596;17.648;2024-01-30T03:08:04;67.67;;;36.27;;
22172;SDS011;11252;50.596;17.648;2024-01-30T03:10:32;65.67;;;35.00;;
22172;SDS011;11252;50.596;17.648;2024-01-30T03:12:59;57.77;;;33.23;;
22172;SDS011;11252;50.596;17.648;2024-01-30T03:15:26;62.50;;;32.80;;
22172;SDS011;11252;50.596;17.648;2024-01-30T03:17:53;70.17;;;34.47;;
22172;SDS011;11252;50.596;17.648;2024-01-30T03:20:21;59.63;;;32.53;;
22172;SDS011;11252;50.596;17.648;2024-01-30T03:22:47;61.00;;;30.20;;
22172;SDS011;11252;50.596;17.648;2024-01-30T03:25:15;57.60;;;31.17;;
22172;SDS011;11252;50.596;17.648;2024-01-30T03:27:42;56.50;;;29.67;;
22172;SDS011;11252;50.596;17.648;2024-01-30T03:30:09;50.60;;;29.13;;
22172;SDS011;11252;50.596;17.648;2024-01-30T03:32:36;54.87;;;31.83;;
22172;SDS011;11252;50.596;17.648;2024-01-30T03:35:03;59.73;;;32.20;;
22172;SDS011;11252;50.596;17.648;2024-01-30T03:37:31;55.33;;;28.83;;
22172;SDS011;11252;50.596;17.648;2024-01-30T03:39:58;52.63;;;28.93;;
22172;SDS011;11252;50.596;17.648;2024-01-30T03:42:25;50.53;;;27.60;;
22172;SDS011;11252;50.596;17.648;2024-01-30T03:44:52;50.40;;;26.53;;
22172;SDS011;11252;50.596;17.648;2024-01-30T03:47:20;49.47;;;26.30;;
22172;SDS011;11252;50.596;17.648;2024-01-30T03:49:47;52.03;;;25.43;;
22172;SDS011;11252;50.596;17.648;2024-01-30T03:52:14;49.50;;;26.13;;
22172;SDS011;11252;50.596;17.648;2024-01-30T03:54:42;47.73;;;24.00;;
22172;SDS011;11252;50.596;17.648;2024-01-30T03:57:08;46.33;;;25.17;;
22172;SDS011;11252;50.596;17.648;2024-01-30T03:59:36;54.83;;;26.77;;
22172;SDS011;11252;50.596;17.648;2024-01-30T04:02:03;47.80;;;23.90;;
22172;SDS011;11252;50.596;17.648;2024-01-30T04:04:31;43.20;;;22.80;;
22172;SDS011;11252;50.596;17.648;2024-01-30T04:06:58;51.00;;;24.70;;
22172;SDS011;11252;50.596;17.648;2024-01-30T04:09:25;51.00;;;25.63;;
22172;SDS011;11252;50.596;17.648;2024-01-30T04:11:53;49.20;;;24.70;;
22172;SDS011;11252;50.596;17.648;2024-01-30T04:14:20;53.00;;;28.03;;
22172;SDS011;11252;50.596;17.648;2024-01-30T04:16:47;62.90;;;32.27;;
22172;SDS011;11252;50.596;17.648;2024-01-30T04:19:14;52.33;;;28.97;;
22172;SDS011;11252;50.596;17.648;2024-01-30T04:21:41;56.27;;;31.80;;
22172;SDS011;11252;50.596;17.648;2024-01-30T04:24:09;79.00;;;48.40;;
22172;SDS011;11252;50.596;17.648;2024-01-30T04:26:36;89.87;;;59.10;;
22172;SDS011;11252;50.596;17.648;2024-01-30T04:29:03;63.77;;;38.93;;
22172;SDS011;11252;50.596;17.648;2024-01-30T04:31:30;69.33;;;36.93;;
22172;SDS011;11252;50.596;17.648;2024-01-30T04:33:57;57.90;;;33.83;;
22172;SDS011;11252;50.596;17.648;2024-01-30T04:36:24;49.17;;;27.00;;
22172;SDS011;11252;50.596;17.648;2024-01-30T04:38:51;49.20;;;26.07;;
22172;SDS011;11252;50.596;17.648;2024-01-30T04:41:18;53.20;;;30.47;;
22172;SDS011;11252;50.596;17.648;2024-01-30T04:43:45;55.70;;;28.67;;
22172;SDS011;11252;50.596;17.648;2024-01-30T04:46:12;52.17;;;27.33;;
22172;SDS011;11252;50.596;17.648;2024-01-30T04:48:39;41.03;;;22.53;;
22172;SDS011;11252;50.596;17.648;2024-01-30T04:51:07;43.60;;;23.73;;
22172;SDS011;11252;50.596;17.648;2024-01-30T04:53:34;49.20;;;28.20;;
22172;SDS011;11252;50.596;17.648;2024-01-30T04:56:01;53.93;;;31.20;;
22172;SDS011;11252;50.596;17.648;2024-01-30T04:58:28;43.40;;;26.27;;
22172;SDS011;11252;50.596;17.648;2024-01-30T05:00:56;46.17;;;24.23;;
22172;SDS011;11252;50.596;17.648;2024-01-30T05:03:24;46.70;;;25.63;;
22172;SDS011;11252;50.596;17.648;2024-01-30T05:05:51;42.13;;;25.67;;
22172;SDS011;11252;50.596;17.648;2024-01-30T05:08:18;53.40;;;28.43;;
22172;SDS011;11252;50.596;17.648;2024-01-30T05:10:45;59.87;;;35.13;;
22172;SDS011;11252;50.596;17.648;2024-01-30T05:13:12;58.77;;;33.00;;
22172;SDS011;11252;50.596;17.648;2024-01-30T05:15:40;47.60;;;28.03;;
22172;SDS011;11252;50.596;17.648;2024-01-30T05:18:07;49.03;;;27.83;;
22172;SDS011;11252;50.596;17.648;2024-01-30T05:20:34;43.93;;;25.00;;
22172;SDS011;11252;50.596;17.648;2024-01-30T05:23:02;41.43;;;24.53;;
22172;SDS011;11252;50.596;17.648;2024-01-30T05:25:29;38.40;;;23.63;;
22172;SDS011;11252;50.596;17.648;2024-01-30T05:27:56;46.87;;;26.63;;
22172;SDS011;11252;50.596;17.648;2024-01-30T05:30:24;45.90;;;28.23;;
22172;SDS011;11252;50.596;17.648;2024-01-30T05:32:51;60.50;;;35.87;;
22172;SDS011;11252;50.596;17.648;2024-01-30T05:35:19;86.10;;;46.97;;
22172;SDS011;11252;50.596;17.648;2024-01-30T05:37:48;83.70;;;47.13;;
22172;SDS011;11252;50.596;17.648;2024-01-30T05:40:16;86.63;;;47.43;;
22172;SDS011;11252;50.596;17.648;2024-01-30T05:42:43;78.53;;;42.53;;
22172;SDS011;11252;50.596;17.648;2024-01-30T05:45:10;69.63;;;39.27;;
22172;SDS011;11252;50.596;17.648;2024-01-30T05:47:39;66.73;;;37.43;;
22172;SDS011;11252;50.596;17.648;2024-01-30T05:50:06;61.10;;;33.57;;
22172;SDS011;11252;50.596;17.648;2024-01-30T05:52:33;54.33;;;32.83;;
22172;SDS011;11252;50.596;17.648;2024-01-30T05:55:01;65.00;;;33.97;;
22172;SDS011;11252;50.596;17.648;2024-01-30T05:57:29;64.47;;;33.43;;
22172;SDS011;11252;50.596;17.648;2024-01-30T05:59:56;53.93;;;29.00;;
22172;SDS011;11252;50.596;17.648;2024-01-30T06:02:23;49.00;;;26.80;;
22172;SDS011;11252;50.596;17.648;2024-01-30T06:04:50;46.17;;;24.27;;
22172;SDS011;11252;50.596;17.648;2024-01-30T06:07:17;46.67;;;23.77;;
22172;SDS011;11252;50.596;17.648;2024-01-30T06:09:45;33.60;;;19.23;;
22172;SDS011;11252;50.596;17.648;2024-01-30T06:12:13;31.33;;;17.03;;
22172;SDS011;11252;50.596;17.648;2024-01-30T06:14:40;34.60;;;18.23;;
22172;SDS011;11252;50.596;17.648;2024-01-30T06:17:12;38.33;;;20.30;;
22172;SDS011;11252;50.596;17.648;2024-01-30T06:19:40;33.60;;;17.17;;
22172;SDS011;11252;50.596;17.648;2024-01-30T06:22:08;33.13;;;19.63;;
22172;SDS011;11252;50.596;17.648;2024-01-30T06:24:35;43.20;;;23.17;;
22172;SDS011;11252;50.596;17.648;2024-01-30T06:27:02;40.67;;;22.97;;
22172;SDS011;11252;50.596;17.648;2024-01-30T06:29:29;39.97;;;22.17;;
22172;SDS011;11252;50.596;17.648;2024-01-30T06:31:56;39.57;;;20.80;;
22172;SDS011;11252;50.596;17.648;2024-01-30T06:34:23;36.70;;;20.17;;
22172;SDS011;11252;50.596;17.648;2024-01-30T06:36:52;42.00;;;19.40;;
22172;SDS011;11252;50.596;17.648;2024-01-30T06:39:20;32.30;;;18.27;;
22172;SDS011;11252;50.596;17.648;2024-01-30T06:41:47;37.03;;;19.63;;
22172;SDS011;11252;50.596;17.648;2024-01-30T06:44:14;37.70;;;18.77;;
22172;SDS011;11252;50.596;17.648;2024-01-30T06:46:42;37.33;;;18.50;;
22172;SDS011;11252;50.596;17.648;2024-01-30T06:49:09;31.93;;;18.40;;
22172;SDS011;11252;50.596;17.648;2024-01-30T06:51:36;33.60;;;18.53;;
22172;SDS011;11252;50.596;17.648;2024-01-30T06:54:03;32.30;;;18.30;;
22172;SDS011;11252;50.596;17.648;2024-01-30T06:56:31;40.20;;;20.23;;
22172;SDS011;11252;50.596;17.648;2024-01-30T06:58:58;38.90;;;19.70;;
22172;SDS011;11252;50.596;17.648;2024-01-30T07:01:29;39.93;;;19.77;;
22172;SDS011;11252;50.596;17.648;2024-01-30T07:03:57;30.30;;;15.43;;
22172;SDS011;11252;50.596;17.648;2024-01-30T07:06:24;28.40;;;13.70;;
22172;SDS011;11252;50.596;17.648;2024-01-30T07:08:51;26.93;;;14.07;;
22172;SDS011;11252;50.596;17.648;2024-01-30T07:11:19;25.67;;;14.20;;
22172;SDS011;11252;50.596;17.648;2024-01-30T07:13:48;18.27;;;10.87;;
22172;SDS011;11252;50.596;17.648;2024-01-30T07:16:18;21.93;;;11.43;;
22172;SDS011;11252;50.596;17.648;2024-01-30T07:18:46;26.90;;;13.13;;
22172;SDS011;11252;50.596;17.648;2024-01-30T07:21:13;30.03;;;14.80;;
22172;SDS011;11252;50.596;17.648;2024-01-30T07:23:40;34.93;;;17.27;;
22172;SDS011;11252;50.596;17.648;2024-01-30T07:26:08;27.00;;;15.30;;
22172;SDS011;11252;50.596;17.648;2024-01-30T07:28:35;36.27;;;20.33;;
22172;SDS011;11252;50.596;17.648;2024-01-30T07:31:03;37.90;;;22.53;;
22172;SDS011;11252;50.596;17.648;2024-01-30T07:33:30;61.17;;;32.13;;
22172;SDS011;11252;50.596;17.648;2024-01-30T07:35:57;60.87;;;32.10;;
22172;SDS011;11252;50.596;17.648;2024-01-30T07:38:24;41.83;;;21.67;;
22172;SDS011;11252;50.596;17.648;2024-01-30T07:40:51;53.70;;;28.83;;
22172;SDS011;11252;50.596;17.648;2024-01-30T07:43:29;56.00;;;31.40;;
22172;SDS011;11252;50.596;17.648;2024-01-30T07:45:57;76.83;;;44.50;;
22172;SDS011;11252;50.596;17.648;2024-01-30T07:48:24;69.20;;;40.47;;
22172;SDS011;11252;50.596;17.648;2024-01-30T07:50:51;70.07;;;38.57;;
22172;SDS011;11252;50.596;17.648;2024-01-30T07:53:18;76.07;;;40.90;;
22172;SDS011;11252;50.596;17.648;2024-01-30T07:55:48;77.07;;;44.03;;
22172;SDS011;11252;50.596;17.648;2024-01-30T07:58:17;86.03;;;47.57;;
22172;SDS011;11252;50.596;17.648;2024-01-30T08:00:45;97.93;;;52.57;;
22172;SDS011;11252;50.596;17.648;2024-01-30T08:03:12;102.07;;;56.47;;
22172;SDS011;11252;50.596;17.648;2024-01-30T08:05:42;55.57;;;32.20;;
22172;SDS011;11252;50.596;17.648;2024-01-30T08:08:09;43.60;;;23.93;;
22172;SDS011;11252;50.596;17.648;2024-01-30T08:10:36;43.60;;;26.43;;
22172;SDS011;11252;50.596;17.648;2024-01-30T08:13:03;82.60;;;52.67;;
22172;SDS011;11252;50.596;17.648;2024-01-30T08:15:30;106.83;;;71.90;;
22172;SDS011;11252;50.596;17.648;2024-01-30T08:17:57;97.57;;;59.77;;
22172;SDS011;11252;50.596;17.648;2024-01-30T08:20:25;108.33;;;63.57;;
22172;SDS011;11252;50.596;17.648;2024-01-30T08:22:52;109.50;;;69.63;;
22172;SDS011;11252;50.596;17.648;2024-01-30T08:25:19;96.57;;;55.10;;
22172;SDS011;11252;50.596;17.648;2024-01-30T08:27:48;55.47;;;31.50;;
22172;SDS011;11252;50.596;17.648;2024-01-30T08:30:15;41.47;;;24.67;;
22172;SDS011;11252;50.596;17.648;2024-01-30T08:32:42;28.20;;;14.30;;
22172;SDS011;11252;50.596;17.648;2024-01-30T08:35:09;16.83;;;9.87;;
22172;SDS011;11252;50.596;17.648;2024-01-30T08:37:36;12.60;;;9.07;;
22172;SDS011;11252;50.596;17.648;2024-01-30T08:40:07;15.13;;;7.93;;
22172;SDS011;11252;50.596;17.648;2024-01-30T08:42:38;17.50;;;10.00;;
22172;SDS011;11252;50.596;17.648;2024-01-30T08:45:05;17.30;;;10.60;;
22172;SDS011;11252;50.596;17.648;2024-01-30T08:47:34;17.93;;;11.30;;
22172;SDS011;11252;50.596;17.648;2024-01-30T08:50:01;17.77;;;13.00;;
22172;SDS011;11252;50.596;17.648;2024-01-30T08:52:29;25.80;;;13.77;;
22172;SDS011;11252;50.596;17.648;2024-01-30T08:54:56;25.13;;;17.97;;
22172;SDS011;11252;50.596;17.648;2024-01-30T08:57:27;47.27;;;32.23;;
22172;SDS011;11252;50.596;17.648;2024-01-30T08:59:56;35.50;;;23.33;;
22172;SDS011;11252;50.596;17.648;2024-01-30T09:02:24;90.57;;;56.77;;
22172;SDS011;11252;50.596;17.648;2024-01-30T09:04:51;71.63;;;43.03;;
22172;SDS011;11252;50.596;17.648;2024-01-30T09:07:18;80.20;;;42.47;;
22172;SDS011;11252;50.596;17.648;2024-01-30T09:09:45;85.87;;;53.10;;
22172;SDS011;11252;50.596;17.648;2024-01-30T09:12:13;103.23;;;54.97;;
22172;SDS011;11252;50.596;17.648;2024-01-30T09:14:40;85.43;;;49.33;;
22172;SDS011;11252;50.596;17.648;2024-01-30T09:17:08;85.57;;;51.10;;
22172;SDS011;11252;50.596;17.648;2024-01-30T09:19:36;94.40;;;53.17;;
22172;SDS011;11252;50.596;17.648;2024-01-30T09:22:03;87.57;;;51.07;;
22172;SDS011;11252;50.596;17.648;2024-01-30T09:24:30;68.43;;;40.27;;
22172;SDS011;11252;50.596;17.648;2024-01-30T09:26:57;55.80;;;35.87;;
22172;SDS011;11252;50.596;17.648;2024-01-30T09:29:24;60.73;;;42.43;;
22172;SDS011;11252;50.596;17.648;2024-01-30T09:31:52;44.80;;;31.30;;
22172;SDS011;11252;50.596;17.648;2024-01-30T09:34:20;58.30;;;40.90;;
22172;SDS011;11252;50.596;17.648;2024-01-30T09:36:48;51.10;;;34.00;;
22172;SDS011;11252;50.596;17.648;2024-01-30T09:39:15;68.13;;;43.23;;
22172;SDS011;11252;50.596;17.648;2024-01-30T09:41:49;59.10;;;36.30;;
22172;SDS011;11252;50.596;17.648;2024-01-30T09:44:20;29.27;;;19.67;;
22172;SDS011;11252;50.596;17.648;2024-01-30T09:46:49;26.00;;;18.30;;
22172;SDS011;11252;50.596;17.648;2024-01-30T09:49:17;32.10;;;19.90;;
22172;SDS011;11252;50.596;17.648;2024-01-30T09:51:47;35.13;;;21.67;;
22172;SDS011;11252;50.596;17.648;2024-01-30T09:54:15;44.13;;;26.37;;
22172;SDS011;11252;50.596;17.648;2024-01-30T09:56:42;40.80;;;27.25;;
22172;SDS011;11252;50.596;17.648;2024-01-30T09:59:09;44.40;;;32.08;;
22172;SDS011;11252;50.596;17.648;2024-01-30T10:01:36;47.58;;;30.83;;
22172;SDS011;11252;50.596;17.648;2024-01-30T10:04:04;33.35;;;25.33;;
22172;SDS011;11252;50.596;17.648;2024-01-30T10:06:32;36.78;;;24.58;;
22172;SDS011;11252;50.596;17.648;2024-01-30T10:08:59;31.45;;;24.58;;
22172;SDS011;11252;50.596;17.648;2024-01-30T10:11:27;26.98;;;19.88;;
22172;SDS011;11252;50.596;17.648;2024-01-30T10:13:54;14.88;;;12.70;;
22172;SDS011;11252;50.596;17.648;2024-01-30T10:16:21;15.27;;;11.40;;
22172;SDS011;11252;50.596;17.648;2024-01-30T10:18:48;14.48;;;10.55;;
22172;SDS011;11252;50.596;17.648;2024-01-30T10:21:15;18.40;;;10.88;;
22172;SDS011;11252;50.596;17.648;2024-01-30T10:23:43;10.43;;;8.70;;
22172;SDS011;11252;50.596;17.648;2024-01-30T10:26:11;8.90;;;7.65;;
22172;SDS011;11252;50.596;17.648;2024-01-30T10:28:39;10.85;;;7.93;;
22172;SDS011;11252;50.596;17.648;2024-01-30T10:31:06;12.30;;;6.15;;
22172;SDS011;11252;50.596;17.648;2024-01-30T10:33:33;5.72;;;4.32;;
22172;SDS011;11252;50.596;17.648;2024-01-30T10:36:01;6.70;;;4.90;;
22172;SDS011;11252;50.596;17.648;2024-01-30T10:38:31;5.60;;;4.28;;
22172;SDS011;11252;50.596;17.648;2024-01-30T10:41:02;19.33;;;9.93;;
22172;SDS011;11252;50.596;17.648;2024-01-30T10:43:38;9.93;;;6.05;;
22172;SDS011;11252;50.596;17.648;2024-01-30T10:46:20;9.75;;;7.57;;
22172;SDS011;11252;50.596;17.648;2024-01-30T10:48:57;8.73;;;6.38;;
22172;SDS011;11252;50.596;17.648;2024-01-30T10:51:28;8.80;;;5.70;;
22172;SDS011;11252;50.596;17.648;2024-01-30T10:53:56;8.95;;;5.95;;
22172;SDS011;11252;50.596;17.648;2024-01-30T10:56:25;9.90;;;5.83;;
22172;SDS011;11252;50.596;17.648;2024-01-30T10:58:52;22.80;;;17.57;;
22172;SDS011;11252;50.596;17.648;2024-01-30T11:01:20;22.13;;;15.93;;
22172;SDS011;11252;50.596;17.648;2024-01-30T11:03:50;13.23;;;8.10;;
22172;SDS011;11252;50.596;17.648;2024-01-30T11:06:21;8.87;;;5.73;;
22172;SDS011;11252;50.596;17.648;2024-01-30T11:14:31;5.13;;;4.03;;
22172;SDS011;11252;50.596;17.648;2024-01-30T11:16:59;4.83;;;3.87;;
22172;SDS011;11252;50.596;17.648;2024-01-30T11:19:30;5.40;;;3.80;;
22172;SDS011;11252;50.596;17.648;2024-01-30T11:21:58;8.17;;;4.40;;
22172;SDS011;11252;50.596;17.648;2024-01-30T11:24:26;12.13;;;4.53;;
22172;SDS011;11252;50.596;17.648;2024-01-30T11:27:00;14.40;;;7.17;;
22172;SDS011;11252;50.596;17.648;2024-01-30T11:29:29;12.37;;;6.87;;
22172;SDS011;11252;50.596;17.648;2024-01-30T11:31:57;8.00;;;4.73;;
22172;SDS011;11252;50.596;17.648;2024-01-30T11:34:25;7.50;;;4.87;;
22172;SDS011;11252;50.596;17.648;2024-01-30T11:36:55;9.53;;;5.90;;
22172;SDS011;11252;50.596;17.648;2024-01-30T11:39:26;8.50;;;5.20;;
22172;SDS011;11252;50.596;17.648;2024-01-30T11:41:54;9.03;;;5.27;;
22172;SDS011;11252;50.596;17.648;2024-01-30T11:44:22;9.07;;;5.37;;
22172;SDS011;11252;50.596;17.648;2024-01-30T11:46:51;38.70;;;22.20;;
22172;SDS011;11252;50.596;17.648;2024-01-30T11:49:19;17.30;;;11.03;;
22172;SDS011;11252;50.596;17.648;2024-01-30T11:51:46;14.97;;;9.13;;
22172;SDS011;11252;50.596;17.648;2024-01-30T11:54:15;30.77;;;13.50;;
22172;SDS011;11252;50.596;17.648;2024-01-30T11:56:43;11.33;;;6.00;;
22172;SDS011;11252;50.596;17.648;2024-01-30T11:59:10;15.87;;;8.90;;
22172;SDS011;11252;50.596;17.648;2024-01-30T12:01:37;23.60;;;12.80;;
22172;SDS011;11252;50.596;17.648;2024-01-30T12:04:05;4.97;;;2.73;;
22172;SDS011;11252;50.596;17.648;2024-01-30T12:06:37;4.13;;;2.73;;
22172;SDS011;11252;50.596;17.648;2024-01-30T12:09:05;8.50;;;2.90;;
22172;SDS011;11252;50.596;17.648;2024-01-30T12:11:45;5.93;;;2.87;;
22172;SDS011;11252;50.596;17.648;2024-01-30T12:14:12;10.43;;;5.60;;
22172;SDS011;11252;50.596;17.648;2024-01-30T12:16:40;10.60;;;4.83;;
22172;SDS011;11252;50.596;17.648;2024-01-30T12:19:10;16.50;;;7.70;;
22172;SDS011;11252;50.596;17.648;2024-01-30T12:21:38;26.07;;;13.13;;
22172;SDS011;11252;50.596;17.648;2024-01-30T12:24:05;5.17;;;3.40;;
22172;SDS011;11252;50.596;17.648;2024-01-30T12:26:34;5.27;;;3.13;;
22172;SDS011;11252;50.596;17.648;2024-01-30T12:29:03;5.60;;;3.10;;
22172;SDS011;11252;50.596;17.648;2024-01-30T12:31:31;12.53;;;5.87;;
22172;SDS011;11252;50.596;17.648;2024-01-30T12:34:00;8.77;;;4.03;;
22172;SDS011;11252;50.596;17.648;2024-01-30T12:36:28;20.10;;;9.80;;
22172;SDS011;11252;50.596;17.648;2024-01-30T12:38:57;11.60;;;6.80;;
22172;SDS011;11252;50.596;17.648;2024-01-30T12:41:25;9.33;;;5.73;;
22172;SDS011;11252;50.596;17.648;2024-01-30T12:43:56;11.80;;;6.60;;
22172;SDS011;11252;50.596;17.648;2024-01-30T12:46:27;11.50;;;6.50;;
22172;SDS011;11252;50.596;17.648;2024-01-30T12:48:55;7.53;;;5.30;;
22172;SDS011;11252;50.596;17.648;2024-01-30T12:51:23;10.77;;;7.80;;
22172;SDS011;11252;50.596;17.648;2024-01-30T12:53:51;7.40;;;4.60;;
22172;SDS011;11252;50.596;17.648;2024-01-30T12:56:18;6.20;;;4.70;;
22172;SDS011;11252;50.596;17.648;2024-01-30T12:58:45;7.50;;;5.33;;
22172;SDS011;11252;50.596;17.648;2024-01-30T13:01:17;12.30;;;7.17;;
22172;SDS011;11252;50.596;17.648;2024-01-30T13:03:44;6.90;;;4.83;;
22172;SDS011;11252;50.596;17.648;2024-01-30T13:06:12;17.97;;;11.57;;
22172;SDS011;11252;50.596;17.648;2024-01-30T13:08:39;22.37;;;12.57;;
22172;SDS011;11252;50.596;17.648;2024-01-30T13:11:06;17.10;;;10.70;;
22172;SDS011;11252;50.596;17.648;2024-01-30T13:13:45;11.77;;;7.70;;
22172;SDS011;11252;50.596;17.648;2024-01-30T13:16:13;11.63;;;8.50;;
22172;SDS011;11252;50.596;17.648;2024-01-30T13:18:40;8.70;;;6.43;;
22172;SDS011;11252;50.596;17.648;2024-01-30T13:21:08;11.27;;;6.97;;
22172;SDS011;11252;50.596;17.648;2024-01-30T13:23:35;9.15;;;7.90;;
22172;SDS011;11252;50.596;17.648;2024-01-30T13:26:02;8.75;;;6.32;;
22172;SDS011;11252;50.596;17.648;2024-01-30T13:28:29;7.97;;;5.13;;
22172;SDS011;11252;50.596;17.648;2024-01-30T13:30:56;6.88;;;5.60;;
22172;SDS011;11252;50.596;17.648;2024-01-30T13:33:24;7.38;;;6.47;;
22172;SDS011;11252;50.596;17.648;2024-01-30T13:35:52;11.88;;;8.98;;
22172;SDS011;11252;50.596;17.648;2024-01-30T13:38:19;12.27;;;9.32;;
22172;SDS011;11252;50.596;17.648;2024-01-30T13:40:47;8.43;;;6.50;;
22172;SDS011;11252;50.596;17.648;2024-01-30T13:43:14;7.72;;;5.82;;
22172;SDS011;11252;50.596;17.648;2024-01-30T13:45:43;12.15;;;9.13;;
22172;SDS011;11252;50.596;17.648;2024-01-30T13:48:10;8.85;;;6.68;;
22172;SDS011;11252;50.596;17.648;2024-01-30T13:50:37;6.28;;;5.43;;
22172;SDS011;11252;50.596;17.648;2024-01-30T13:53:05;9.38;;;8.02;;
22172;SDS011;11252;50.596;17.648;2024-01-30T13:55:32;24.33;;;21.70;;
22172;SDS011;11252;50.596;17.648;2024-01-30T13:57:59;15.48;;;12.95;;
22172;SDS011;11252;50.596;17.648;2024-01-30T14:00:28;9.60;;;7.50;;
22172;SDS011;11252;50.596;17.648;2024-01-30T14:02:55;16.77;;;12.82;;
22172;SDS011;11252;50.596;17.648;2024-01-30T14:05:24;11.10;;;8.52;;
22172;SDS011;11252;50.596;17.648;2024-01-30T14:07:52;21.80;;;14.27;;
22172;SDS011;11252;50.596;17.648;2024-01-30T14:10:19;21.92;;;13.30;;
22172;SDS011;11252;50.596;17.648;2024-01-30T14:12:47;13.77;;;8.98;;
22172;SDS011;11252;50.596;17.648;2024-01-30T14:15:17;26.67;;;16.77;;
22172;SDS011;11252;50.596;17.648;2024-01-30T14:17:54;25.70;;;14.37;;
22172;SDS011;11252;50.596;17.648;2024-01-30T14:20:22;29.93;;;17.93;;